Wye River — WDE3583 — position and weather

sailwx.info

Track history (hours):
 
Tides and Currents Weather Stations Pressure Air Temp Water Temp Dewpoint Dewpoint Depression Visibility Wind Speed Wind Dir Waves Ship Positions

Wye River

Owner: Vane Line Bunkering, Inc., Baltimore, MD. More information available from US FCC via Universal Licensing System and Coast Guard Vessel Documentation Center.

Last reported at 2015-Aug-02 21:34 UTC. Time now 2015-Aug-02 22:30 UTC.
Position N 27°51' W 082°27'.

Length 30 m; draft 4.3 m.

Type: Towing. MMSI: 367341190.

Date/timePositionNaut miles runAvg speedWind from/ knotsBaromVisibWave heightAir tempDewpointWater temp
2015-Aug-02 21:34N 27°51' W 082°27'9 8.4
2015-Aug-02 20:33N 27°44' W 082°32'4 0.2
2015-Aug-01 23:25N 27°41' W 082°34'8 9.8
2015-Aug-01 22:33N 27°48' W 082°28'7 7.2
2015-Aug-01 21:33N 27°55' W 082°27'0 0.1
2015-Aug-01 20:33N 27°55' W 082°27'0 0.0
2015-Aug-01 19:33N 27°55' W 082°27'0 0.0
2015-Aug-01 18:33N 27°55' W 082°27'0 0.0
2015-Aug-01 17:34N 27°55' W 082°27'1 1.1
2015-Aug-01 16:33N 27°56' W 082°26'0 0.0
2015-Aug-01 15:33N 27°56' W 082°26'0 0.0
2015-Aug-01 14:34N 27°56' W 082°26'0 0.0
2015-Aug-01 13:33N 27°56' W 082°26'0 0.0
2015-Aug-01 12:33N 27°56' W 082°26'0 0.0
2015-Aug-01 11:33N 27°56' W 082°26'0 0.0
2015-Aug-01 10:33N 27°56' W 082°26'0 0.0
2015-Aug-01 09:33N 27°56' W 082°26'0 0.0
2015-Aug-01 08:33N 27°56' W 082°26'0 0.0
2015-Aug-01 07:33N 27°56' W 082°26'0 0.0
2015-Aug-01 06:34N 27°56' W 082°26'0 0.0
2015-Aug-01 05:33N 27°56' W 082°26'0 0.0
2015-Aug-01 04:33N 27°56' W 082°26'0 0.0
2015-Aug-01 03:34N 27°56' W 082°26'0 0.0
2015-Aug-01 02:33N 27°56' W 082°26'0 0.0
2015-Aug-01 01:33N 27°56' W 082°26'0 0.0
2015-Aug-01 00:34N 27°56' W 082°26'0 0.0
2015-Jul-31 23:33N 27°56' W 082°26'1 1.5
2015-Jul-31 22:33N 27°54' W 082°26'2 2.2
2015-Jul-31 21:34N 27°57' W 082°27'1 0.5
2015-Jul-31 20:34N 27°57' W 082°27'0 0.0
2015-Jul-31 19:33N 27°57' W 082°27'0 0.0
2015-Jul-31 18:33N 27°57' W 082°27'0 0.0
2015-Jul-31 17:34N 27°57' W 082°27'0 0.0
2015-Jul-31 16:33N 27°57' W 082°27'0 0.0
2015-Jul-31 15:33N 27°57' W 082°27'0 0.0
2015-Jul-31 14:34N 27°57' W 082°27'0 0.0
2015-Jul-31 13:33N 27°57' W 082°27'0 0.0
2015-Jul-31 12:33N 27°57' W 082°27'0 0.0
2015-Jul-31 11:33N 27°57' W 082°27'0 0.0
2015-Jul-31 10:33N 27°57' W 082°27'0 0.0
2015-Jul-31 09:34N 27°57' W 082°27'0 0.0
2015-Jul-31 08:33N 27°57' W 082°27'4 4.0
2015-Jul-31 07:33N 27°53' W 082°26'7 6.2
2015-Jul-31 06:28N 27°47' W 082°30'  
Track history (hours):
 
Tides and Currents Weather Stations Pressure Air Temp Water Temp Dewpoint Dewpoint Depression Visibility Wind Speed Wind Dir Waves Ship Positions

Wye River

Owner: Vane Line Bunkering, Inc., Baltimore, MD. More information available from US FCC via Universal Licensing System and Coast Guard Vessel Documentation Center.

Last reported at 2015-Aug-02 21:34 UTC. Time now 2015-Aug-02 22:30 UTC.
Position N 27°51' W 082°27'.

Length 30 m; draft 4.3 m.

Type: Towing. MMSI: 367341190.

Date/timePositionNaut miles runAvg speedWind from/ knotsBaromVisibWave heightAir tempDewpointWater temp
2015-Aug-02 21:34N 27°51' W 082°27'9 8.4
2015-Aug-02 20:33N 27°44' W 082°32'4 0.2
2015-Aug-01 23:25N 27°41' W 082°34'8 9.8
2015-Aug-01 22:33N 27°48' W 082°28'7 7.2
2015-Aug-01 21:33N 27°55' W 082°27'0 0.1
2015-Aug-01 20:33N 27°55' W 082°27'0 0.0
2015-Aug-01 19:33N 27°55' W 082°27'0 0.0
2015-Aug-01 18:33N 27°55' W 082°27'0 0.0
2015-Aug-01 17:34N 27°55' W 082°27'1 1.1
2015-Aug-01 16:33N 27°56' W 082°26'0 0.0
2015-Aug-01 15:33N 27°56' W 082°26'0 0.0
2015-Aug-01 14:34N 27°56' W 082°26'0 0.0
2015-Aug-01 13:33N 27°56' W 082°26'0 0.0
2015-Aug-01 12:33N 27°56' W 082°26'0 0.0
2015-Aug-01 11:33N 27°56' W 082°26'0 0.0
2015-Aug-01 10:33N 27°56' W 082°26'0 0.0
2015-Aug-01 09:33N 27°56' W 082°26'0 0.0
2015-Aug-01 08:33N 27°56' W 082°26'0 0.0
2015-Aug-01 07:33N 27°56' W 082°26'0 0.0
2015-Aug-01 06:34N 27°56' W 082°26'0 0.0
2015-Aug-01 05:33N 27°56' W 082°26'0 0.0
2015-Aug-01 04:33N 27°56' W 082°26'0 0.0
2015-Aug-01 03:34N 27°56' W 082°26'0 0.0
2015-Aug-01 02:33N 27°56' W 082°26'0 0.0
2015-Aug-01 01:33N 27°56' W 082°26'0 0.0
2015-Aug-01 00:34N 27°56' W 082°26'0 0.0
2015-Jul-31 23:33N 27°56' W 082°26'1 1.5
2015-Jul-31 22:33N 27°54' W 082°26'2 2.2
2015-Jul-31 21:34N 27°57' W 082°27'1 0.5
2015-Jul-31 20:34N 27°57' W 082°27'0 0.0
2015-Jul-31 19:33N 27°57' W 082°27'0 0.0
2015-Jul-31 18:33N 27°57' W 082°27'0 0.0
2015-Jul-31 17:34N 27°57' W 082°27'0 0.0
2015-Jul-31 16:33N 27°57' W 082°27'0 0.0
2015-Jul-31 15:33N 27°57' W 082°27'0 0.0
2015-Jul-31 14:34N 27°57' W 082°27'0 0.0
2015-Jul-31 13:33N 27°57' W 082°27'0 0.0
2015-Jul-31 12:33N 27°57' W 082°27'0 0.0
2015-Jul-31 11:33N 27°57' W 082°27'0 0.0
2015-Jul-31 10:33N 27°57' W 082°27'0 0.0
2015-Jul-31 09:34N 27°57' W 082°27'0 0.0
2015-Jul-31 08:33N 27°57' W 082°27'4 4.0
2015-Jul-31 07:33N 27°53' W 082°26'7 6.2
2015-Jul-31 06:28N 27°47' W 082°30'  

Dump ship's entire track history